createdAt,value
2023-04-20T00:00:47.657Z,0.80
2023-04-20T00:03:14.906Z,0.85
2023-04-20T00:05:42.169Z,0.77
2023-04-20T00:08:09.044Z,0.90
2023-04-20T00:10:35.969Z,0.80
2023-04-20T00:13:02.710Z,0.70
2023-04-20T00:15:30.173Z,1.40
2023-04-20T00:17:57.498Z,0.90
2023-04-20T00:20:24.580Z,1.25
2023-04-20T00:22:51.376Z,0.70
2023-04-20T00:25:18.273Z,1.33
2023-04-20T00:27:45.280Z,1.10
2023-04-20T00:30:12.870Z,1.10
2023-04-20T00:32:39.892Z,1.08
2023-04-20T00:35:06.863Z,1.00
2023-04-20T00:37:33.617Z,1.00
2023-04-20T00:40:00.502Z,0.88
2023-04-20T00:42:27.247Z,1.10
2023-04-20T00:44:54.067Z,1.20
2023-04-20T00:47:21.019Z,1.40
2023-04-20T00:49:47.814Z,0.85
2023-04-20T00:52:15.636Z,1.17
2023-04-20T00:54:42.417Z,1.20
2023-04-20T00:57:10.999Z,1.65
2023-04-20T00:59:37.941Z,0.75
2023-04-20T01:02:04.853Z,0.93
2023-04-20T01:04:31.840Z,1.02
2023-04-20T01:06:58.656Z,1.08
2023-04-20T01:09:25.525Z,0.93
2023-04-20T01:11:52.298Z,0.82
2023-04-20T01:14:19.160Z,0.80
2023-04-20T01:16:47.152Z,1.10
2023-04-20T01:19:14.046Z,1.30
2023-04-20T01:21:41.037Z,1.17
2023-04-20T01:24:08.153Z,0.80
2023-04-20T01:26:35.051Z,1.10
2023-04-20T01:29:01.880Z,1.58
2023-04-20T01:31:28.665Z,1.30
2023-04-20T01:33:55.410Z,1.20
2023-04-20T01:36:22.763Z,1.40
2023-04-20T01:38:49.623Z,1.35
2023-04-20T01:41:16.578Z,1.23
2023-04-20T01:43:43.489Z,1.15
2023-04-20T01:46:10.296Z,1.48
2023-04-20T01:48:37.135Z,1.70
2023-04-20T01:51:04.019Z,1.33
2023-04-20T01:53:30.873Z,1.40
2023-04-20T01:55:58.381Z,1.70
2023-04-20T01:58:25.226Z,1.17
2023-04-20T02:00:52.081Z,1.08
2023-04-20T02:03:19.039Z,0.90
2023-04-20T02:05:46.080Z,1.00
2023-04-20T02:08:14.030Z,1.48
2023-04-20T02:10:40.896Z,1.20
2023-04-20T02:13:07.645Z,1.25
2023-04-20T02:15:34.488Z,1.50
2023-04-20T02:18:01.483Z,1.55
2023-04-20T02:20:28.335Z,2.13
2023-04-20T02:22:55.223Z,1.40
2023-04-20T02:25:21.991Z,1.30
2023-04-20T02:27:49.526Z,1.20
2023-04-20T02:30:16.605Z,1.42
2023-04-20T02:32:43.671Z,0.90
2023-04-20T02:35:10.598Z,1.38
2023-04-20T02:37:37.388Z,1.00
2023-04-20T02:40:05.118Z,1.17
2023-04-20T02:42:31.882Z,1.55
2023-04-20T02:44:58.714Z,1.15
2023-04-20T02:47:25.583Z,1.40
2023-04-20T02:49:52.454Z,1.52
2023-04-20T02:52:19.304Z,1.20
2023-04-20T02:54:46.044Z,1.50
2023-04-20T02:57:12.842Z,1.10
2023-04-20T02:59:39.599Z,2.10
2023-04-20T03:02:06.560Z,1.50
2023-04-20T03:04:33.502Z,1.63
2023-04-20T03:07:01.475Z,1.38
2023-04-20T03:09:28.319Z,1.40
2023-04-20T03:11:55.114Z,1.30
2023-04-20T03:14:21.962Z,1.60
2023-04-20T03:16:48.872Z,1.25
2023-04-20T03:19:16.628Z,1.80
2023-04-20T03:21:44.850Z,1.35
2023-04-20T03:24:11.673Z,1.60
2023-04-20T03:26:38.426Z,1.85
2023-04-20T03:29:05.343Z,2.05
2023-04-20T03:31:32.128Z,1.55
2023-04-20T03:33:58.930Z,1.40
2023-04-20T03:36:26.240Z,1.65
2023-04-20T03:38:53.029Z,1.50
2023-04-20T03:41:19.844Z,1.63
2023-04-20T03:43:46.856Z,1.42
2023-04-20T03:46:13.678Z,1.73
2023-04-20T03:48:40.631Z,1.33
2023-04-20T03:51:07.428Z,1.10
2023-04-20T03:53:34.231Z,1.60
2023-04-20T03:56:01.487Z,1.63
2023-04-20T03:58:28.315Z,1.60
2023-04-20T04:01:02.297Z,1.80
2023-04-20T04:03:29.225Z,1.30
2023-04-20T04:05:56.407Z,1.60
2023-04-20T04:08:23.377Z,1.50
2023-04-20T04:10:50.356Z,1.33
2023-04-20T04:13:17.297Z,1.40
2023-04-20T04:15:44.193Z,1.20
2023-04-20T04:18:10.960Z,1.35
2023-04-20T04:20:37.754Z,1.70
2023-04-20T04:23:05.110Z,1.25
2023-04-20T04:25:32.113Z,1.15
2023-04-20T04:27:58.952Z,1.23
2023-04-20T04:30:26.424Z,1.33
2023-04-20T04:32:53.455Z,1.08
2023-04-20T04:35:20.399Z,0.98
2023-04-20T04:37:47.581Z,1.20
2023-04-20T04:40:14.515Z,1.45
2023-04-20T04:42:41.603Z,1.52
2023-04-20T04:45:10.492Z,1.20
2023-04-20T04:47:37.690Z,1.33
2023-04-20T04:50:07.212Z,1.50
2023-04-20T04:52:34.260Z,1.30
2023-04-20T04:55:01.120Z,1.20
2023-04-20T04:57:28.028Z,1.63
2023-04-20T04:59:55.794Z,1.60
2023-04-20T05:02:22.805Z,1.80
2023-04-20T05:04:49.727Z,1.23
2023-04-20T05:07:17.446Z,1.50
2023-04-20T05:09:44.487Z,1.30
2023-04-20T05:12:11.324Z,1.30
2023-04-20T05:14:38.122Z,1.25
2023-04-20T05:17:04.946Z,1.13
2023-04-20T05:19:31.734Z,1.33
2023-04-20T05:21:58.539Z,1.88
2023-04-20T05:24:25.590Z,1.50
2023-04-20T05:26:52.370Z,1.70
2023-04-20T05:29:19.919Z,1.35
2023-04-20T05:31:47.136Z,1.73
2023-04-20T05:34:13.999Z,1.27
2023-04-20T05:36:41.433Z,1.17
2023-04-20T05:39:08.538Z,1.40
2023-04-20T05:41:35.515Z,1.60
2023-04-20T05:44:02.305Z,1.20
2023-04-20T05:46:29.456Z,1.23
2023-04-20T05:48:56.410Z,1.30
2023-04-20T05:51:23.376Z,1.10
2023-04-20T05:53:50.253Z,1.80
2023-04-20T05:56:18.530Z,1.20
2023-04-20T05:58:45.481Z,1.30
2023-04-20T06:01:12.256Z,1.48
2023-04-20T06:03:39.383Z,1.67
2023-04-20T06:06:06.927Z,1.48
2023-04-20T06:08:33.728Z,1.48
2023-04-20T06:11:00.731Z,1.40
2023-04-20T06:13:27.586Z,1.60
2023-04-20T06:15:54.614Z,1.48
2023-04-20T06:18:21.495Z,1.15
2023-04-20T06:20:48.391Z,1.40
2023-04-20T06:23:15.178Z,1.58
2023-04-20T06:25:42.028Z,1.63
2023-04-20T06:28:08.981Z,1.70
2023-04-20T06:30:36.212Z,1.83
2023-04-20T06:33:03.333Z,1.95
2023-04-20T06:35:30.165Z,1.42
2023-04-20T06:37:57.662Z,1.67
2023-04-20T06:40:27.901Z,1.48
2023-04-20T06:42:54.896Z,1.20
2023-04-20T06:45:21.704Z,1.48
2023-04-20T06:47:49.013Z,1.48
2023-04-20T06:50:15.877Z,1.17
2023-04-20T06:52:42.926Z,1.40
2023-04-20T06:55:09.923Z,1.70
2023-04-20T06:57:38.838Z,1.92
2023-04-20T07:00:08.571Z,2.50
2023-04-20T07:02:45.543Z,2.58
2023-04-20T07:05:12.650Z,1.95
2023-04-20T07:07:39.829Z,2.35
2023-04-20T07:10:08.626Z,1.85
2023-04-20T07:12:36.729Z,2.30
2023-04-20T07:15:04.212Z,2.00
2023-04-20T07:17:31.551Z,2.13
2023-04-20T07:19:59.119Z,2.30
2023-04-20T07:22:26.071Z,1.55
2023-04-20T07:24:52.862Z,1.90
2023-04-20T07:27:19.771Z,1.70
2023-04-20T07:29:46.658Z,2.08
2023-04-20T07:32:14.681Z,1.98
2023-04-20T07:34:41.632Z,1.77
2023-04-20T07:37:08.404Z,3.03
2023-04-20T07:39:35.288Z,2.25
2023-04-20T07:42:03.900Z,2.20
2023-04-20T07:44:31.080Z,2.13
2023-04-20T07:46:57.873Z,2.40
2023-04-20T07:49:27.813Z,2.17
2023-04-20T07:52:03.223Z,2.45
2023-04-20T07:54:36.726Z,2.78
2023-04-20T07:57:03.616Z,1.83
2023-04-20T07:59:30.518Z,2.67
2023-04-20T08:02:01.660Z,2.53
2023-04-20T08:04:28.861Z,3.53
2023-04-20T08:06:55.780Z,2.95
2023-04-20T08:09:22.632Z,3.95
2023-04-20T08:11:49.452Z,3.05
2023-04-20T08:14:16.598Z,3.50
2023-04-20T08:16:43.558Z,3.20
2023-04-20T08:19:10.449Z,2.42
2023-04-20T08:21:37.970Z,3.78
2023-04-20T08:24:05.577Z,3.42
2023-04-20T08:26:32.495Z,2.70
2023-04-20T08:29:00.421Z,4.07
2023-04-20T08:31:27.477Z,3.42
2023-04-20T08:33:54.437Z,2.70
2023-04-20T08:36:21.503Z,2.30
2023-04-20T08:38:56.812Z,2.63
2023-04-20T08:41:25.775Z,2.33
2023-04-20T08:43:52.618Z,2.45
2023-04-20T08:46:19.523Z,2.70
2023-04-20T08:48:48.548Z,1.95
2023-04-20T08:51:17.116Z,2.15
2023-04-20T08:53:44.034Z,2.08
2023-04-20T08:56:11.274Z,2.22
2023-04-20T08:58:42.329Z,1.98
2023-04-20T09:01:10.584Z,1.90
2023-04-20T09:03:42.064Z,1.92
2023-04-20T09:06:18.469Z,1.95
2023-04-20T09:08:49.063Z,2.47
2023-04-20T09:11:25.163Z,1.85
2023-04-20T09:14:12.545Z,1.70
2023-04-20T09:17:05.140Z,1.60
2023-04-20T09:19:31.981Z,1.38
2023-04-20T09:22:01.233Z,1.65
2023-04-20T09:24:32.776Z,1.40
2023-04-20T09:27:01.484Z,1.40
2023-04-20T09:29:28.665Z,1.05
2023-04-20T09:31:55.503Z,1.50
2023-04-20T09:34:24.759Z,1.65
2023-04-20T09:36:52.340Z,1.13
2023-04-20T09:39:23.671Z,1.40
2023-04-20T09:41:51.724Z,1.20
2023-04-20T09:44:18.894Z,1.23
2023-04-20T09:46:46.825Z,1.02
2023-04-20T09:49:14.125Z,1.00
2023-04-20T09:51:47.095Z,1.17
2023-04-20T09:54:16.328Z,1.23
2023-04-20T09:56:43.595Z,1.20
2023-04-20T09:59:10.503Z,1.50
2023-04-20T10:01:38.315Z,1.48
2023-04-20T10:04:14.227Z,1.30
2023-04-20T10:06:51.448Z,1.10
2023-04-20T10:09:28.499Z,0.70
2023-04-20T10:12:05.606Z,1.30
2023-04-20T10:14:32.426Z,1.35
2023-04-20T10:17:07.258Z,1.30
2023-04-20T10:19:44.492Z,1.40
2023-04-20T10:22:13.164Z,1.10
2023-04-20T10:24:40.260Z,1.20
2023-04-20T10:27:17.865Z,1.35
2023-04-20T10:29:44.917Z,1.92
2023-04-20T10:32:22.954Z,1.00
2023-04-20T10:34:59.751Z,1.30
2023-04-20T10:37:26.553Z,1.30
2023-04-20T10:39:53.365Z,1.05
2023-04-20T10:42:20.180Z,1.17
2023-04-20T10:44:53.836Z,1.38
2023-04-20T10:47:30.581Z,1.20
2023-04-20T10:50:10.850Z,1.45
2023-04-20T10:52:39.532Z,1.25
2023-04-20T10:55:07.201Z,1.52
2023-04-20T10:57:34.047Z,1.17
2023-04-20T11:00:00.860Z,1.30
2023-04-20T11:02:28.304Z,1.00
2023-04-20T11:05:01.242Z,1.30
2023-04-20T11:07:29.300Z,1.33
2023-04-20T11:09:56.854Z,1.35
2023-04-20T11:12:23.830Z,1.17
2023-04-20T11:14:58.066Z,1.08
2023-04-20T11:17:34.505Z,1.52
2023-04-20T11:20:15.457Z,1.65
2023-04-20T11:22:42.741Z,1.48
2023-04-20T11:25:10.913Z,1.17
2023-04-20T11:27:38.230Z,1.50
2023-04-20T11:30:05.922Z,1.33
2023-04-20T11:32:33.615Z,1.33
2023-04-20T11:35:08.121Z,1.10
2023-04-20T11:37:48.935Z,1.50
2023-04-20T11:40:15.929Z,1.63
2023-04-20T11:42:43.217Z,2.30
2023-04-20T11:45:11.868Z,1.90
2023-04-20T11:47:41.089Z,1.35
2023-04-20T11:50:09.391Z,1.50
2023-04-20T11:52:36.281Z,1.23
2023-04-20T11:55:03.057Z,1.63
2023-04-20T11:57:29.885Z,1.10
2023-04-20T11:59:56.754Z,0.88
2023-04-20T12:02:23.819Z,1.50
2023-04-20T12:04:50.945Z,1.08
2023-04-20T12:07:17.778Z,1.08
2023-04-20T12:09:44.583Z,0.98
2023-04-20T12:12:11.411Z,1.30
2023-04-20T12:14:38.446Z,1.02
2023-04-20T12:17:05.493Z,1.02
2023-04-20T12:19:32.293Z,1.73
2023-04-20T12:21:59.145Z,1.25
2023-04-20T12:24:26.206Z,1.20
2023-04-20T12:26:52.995Z,1.30
2023-04-20T12:29:20.017Z,1.30
2023-04-20T12:31:47.057Z,1.13
2023-04-20T12:34:13.931Z,1.10
2023-04-20T12:36:40.912Z,1.20
2023-04-20T12:39:07.800Z,1.00
2023-04-20T12:41:34.664Z,0.98
2023-04-20T12:44:04.363Z,1.15
2023-04-20T12:46:32.519Z,1.10
2023-04-20T12:48:59.364Z,0.80
2023-04-20T12:51:27.212Z,1.20
2023-04-20T12:53:54.124Z,0.95
2023-04-20T12:56:21.660Z,0.90
2023-04-20T12:58:48.555Z,0.90
2023-04-20T13:01:15.501Z,0.70
2023-04-20T13:03:42.838Z,0.70
2023-04-20T13:06:13.655Z,1.02
2023-04-20T13:08:41.468Z,0.80
2023-04-20T13:11:12.028Z,1.48
2023-04-20T13:13:38.918Z,0.70
2023-04-20T13:16:06.028Z,1.20
2023-04-20T13:18:33.122Z,0.95
2023-04-20T13:20:59.937Z,1.05
2023-04-20T13:23:26.803Z,0.90
2023-04-20T13:25:53.614Z,0.93
2023-04-20T13:28:20.705Z,1.08
2023-04-20T13:30:47.922Z,1.23
2023-04-20T13:33:14.809Z,0.65
2023-04-20T13:35:41.623Z,0.90
2023-04-20T13:38:08.381Z,0.90
2023-04-20T13:40:35.225Z,0.93
2023-04-20T13:43:02.018Z,1.08
2023-04-20T13:45:28.748Z,1.27
2023-04-20T13:47:55.597Z,1.00
2023-04-20T13:50:22.466Z,1.10
2023-04-20T13:52:49.738Z,1.08
2023-04-20T13:55:18.088Z,0.90
2023-04-20T13:57:44.893Z,1.20
2023-04-20T14:00:12.210Z,1.10
2023-04-20T14:02:39.282Z,1.10
2023-04-20T14:05:06.501Z,1.50
2023-04-20T14:07:33.326Z,1.30
2023-04-20T14:10:00.548Z,1.20
2023-04-20T14:12:27.415Z,1.45
2023-04-20T14:14:56.893Z,1.52
2023-04-20T14:17:23.822Z,1.30
2023-04-20T14:19:50.672Z,1.20
2023-04-20T14:22:17.461Z,2.08
2023-04-20T14:24:47.731Z,1.50
2023-04-20T14:27:14.581Z,1.35
2023-04-20T14:29:41.395Z,1.25
2023-04-20T14:32:08.189Z,1.50
2023-04-20T14:34:34.973Z,1.70
2023-04-20T14:37:01.737Z,1.52
2023-04-20T14:39:28.558Z,1.65
2023-04-20T14:41:55.386Z,1.33
2023-04-20T14:44:22.124Z,1.45
2023-04-20T14:46:49.017Z,3.13
2023-04-20T14:49:15.809Z,1.98
2023-04-20T14:51:42.575Z,1.30
2023-04-20T14:54:09.362Z,1.67
2023-04-20T14:56:36.170Z,1.77
2023-04-20T14:59:03.391Z,1.58
2023-04-20T15:01:30.366Z,1.85
2023-04-20T15:03:57.370Z,1.83
2023-04-20T15:06:24.251Z,2.00
2023-04-20T15:08:53.461Z,2.25
2023-04-20T15:11:20.386Z,2.00
2023-04-20T15:13:48.250Z,2.00
2023-04-20T15:16:15.212Z,1.52
2023-04-20T15:18:42.243Z,1.80
2023-04-20T15:21:10.787Z,2.30
2023-04-20T15:23:37.660Z,2.35
2023-04-20T15:26:04.679Z,2.30
2023-04-20T15:28:31.524Z,2.53
2023-04-20T15:30:58.387Z,2.10
2023-04-20T15:33:25.195Z,1.90
2023-04-20T15:35:52.068Z,2.00
2023-04-20T15:38:19.076Z,1.90
2023-04-20T15:40:46.754Z,2.40
2023-04-20T15:43:13.578Z,3.03
2023-04-20T15:45:41.296Z,2.42
2023-04-20T15:48:09.682Z,2.75
2023-04-20T15:50:36.594Z,3.05
2023-04-20T15:53:03.446Z,3.00
2023-04-20T15:55:34.366Z,2.88
2023-04-20T15:58:01.287Z,3.08
2023-04-20T16:00:28.074Z,2.97
2023-04-20T16:02:55.128Z,2.50
2023-04-20T16:05:22.544Z,2.10
2023-04-20T16:07:49.370Z,2.20
2023-04-20T16:10:16.508Z,2.25
2023-04-20T16:12:43.502Z,2.17
2023-04-20T16:15:10.679Z,2.13
2023-04-20T16:17:37.589Z,2.17
2023-04-20T16:20:05.532Z,2.10
2023-04-20T16:22:32.893Z,2.03
2023-04-20T16:24:59.673Z,1.90
2023-04-20T16:27:27.553Z,2.17
2023-04-20T16:29:54.294Z,1.52
2023-04-20T16:32:21.303Z,1.70
2023-04-20T16:34:48.314Z,1.67
2023-04-20T16:37:15.042Z,1.38
2023-04-20T16:39:41.891Z,1.92
2023-04-20T16:42:08.863Z,1.23
2023-04-20T16:44:35.964Z,1.83
2023-04-20T16:47:02.815Z,1.73
2023-04-20T16:49:29.732Z,2.03
2023-04-20T16:51:57.542Z,1.52
2023-04-20T16:54:24.458Z,1.10
2023-04-20T16:56:51.496Z,1.50
2023-04-20T16:59:18.339Z,1.80
2023-04-20T17:01:45.307Z,1.38
2023-04-20T17:04:12.219Z,1.02
2023-04-20T17:06:39.059Z,1.40
2023-04-20T17:09:07.142Z,1.38
2023-04-20T17:11:38.834Z,1.33
2023-04-20T17:14:08.627Z,1.15
2023-04-20T17:16:35.755Z,1.15
2023-04-20T17:19:03.493Z,1.70
2023-04-20T17:21:30.523Z,1.20
2023-04-20T17:23:57.373Z,1.00
2023-04-20T17:26:24.183Z,0.90
2023-04-20T17:28:51.118Z,0.80
2023-04-20T17:31:17.875Z,1.20
2023-04-20T17:33:45.120Z,1.70
2023-04-20T17:36:11.928Z,1.15
2023-04-20T17:38:38.849Z,1.20
2023-04-20T17:41:05.751Z,1.40
2023-04-20T17:43:32.558Z,1.02
2023-04-20T17:46:00.601Z,0.85
2023-04-20T17:48:27.671Z,1.50
2023-04-20T17:50:54.612Z,1.35
2023-04-20T17:53:22.112Z,1.25
2023-04-20T17:55:49.060Z,1.52
2023-04-20T17:58:17.171Z,1.17
2023-04-20T18:00:44.245Z,1.30
2023-04-20T18:03:11.547Z,0.90
2023-04-20T18:05:38.403Z,0.90
2023-04-20T18:08:05.767Z,0.80
2023-04-20T18:10:34.041Z,0.60
2023-04-20T18:13:00.939Z,1.63
2023-04-20T18:15:27.802Z,0.75
2023-04-20T18:17:55.172Z,1.10
2023-04-20T18:20:21.977Z,1.10
2023-04-20T18:22:50.560Z,1.55
2023-04-20T18:25:18.873Z,1.10
2023-04-20T18:27:46.107Z,1.30
2023-04-20T18:30:13.883Z,2.10
2023-04-20T18:32:40.943Z,1.33
2023-04-20T18:35:08.195Z,1.60
2023-04-20T18:37:35.036Z,1.35
2023-04-20T18:40:01.841Z,1.10
2023-04-20T18:42:28.599Z,1.20
2023-04-20T18:44:56.078Z,1.52
2023-04-20T18:47:24.572Z,1.25
2023-04-20T18:49:51.505Z,1.85
2023-04-20T18:52:19.007Z,1.55
2023-04-20T18:54:46.893Z,1.48
2023-04-20T18:57:13.693Z,1.73
2023-04-20T18:59:40.464Z,1.30
2023-04-20T19:02:07.688Z,1.13
2023-04-20T19:04:36.332Z,1.40
2023-04-20T19:07:03.295Z,1.30
2023-04-20T19:09:30.243Z,1.60
2023-04-20T19:11:58.529Z,1.55
2023-04-20T19:14:25.491Z,1.42
2023-04-20T19:16:52.620Z,1.50
2023-04-20T19:19:19.636Z,1.55
2023-04-20T19:21:47.871Z,1.33
2023-04-20T19:24:14.800Z,1.65
2023-04-20T19:26:41.725Z,1.50
2023-04-20T19:29:08.707Z,1.90
2023-04-20T19:31:38.017Z,1.45
2023-04-20T19:34:05.129Z,1.52
2023-04-20T19:36:32.379Z,1.60
2023-04-20T19:39:02.069Z,1.73
2023-04-20T19:41:29.444Z,1.63
2023-04-20T19:43:56.321Z,1.50
2023-04-20T19:46:23.367Z,1.52
2023-04-20T19:48:50.286Z,1.67
2023-04-20T19:51:17.233Z,2.03
2023-04-20T19:53:44.225Z,2.60
2023-04-20T19:56:11.429Z,2.50
2023-04-20T19:58:38.283Z,2.05
2023-04-20T20:01:05.266Z,2.13
2023-04-20T20:03:32.639Z,1.95
2023-04-20T20:06:00.847Z,2.22
2023-04-20T20:08:27.915Z,2.58
2023-04-20T20:10:54.834Z,2.72
2023-04-20T20:13:21.741Z,2.85
2023-04-20T20:15:49.535Z,1.77
2023-04-20T20:18:16.541Z,2.20
2023-04-20T20:20:43.501Z,2.03
2023-04-20T20:23:10.452Z,1.60
2023-04-20T20:25:37.589Z,2.30
2023-04-20T20:28:05.001Z,1.83
2023-04-20T20:30:32.261Z,2.10
2023-04-20T20:32:59.246Z,1.60
2023-04-20T20:35:31.641Z,2.28
2023-04-20T20:37:59.330Z,2.65
2023-04-20T20:40:26.666Z,2.30
2023-04-20T20:42:54.545Z,2.30
2023-04-20T20:45:24.710Z,2.10
2023-04-20T20:47:51.738Z,2.63
2023-04-20T20:50:20.119Z,2.08
2023-04-20T20:52:47.012Z,2.15
2023-04-20T20:55:14.368Z,1.92
2023-04-20T20:57:41.674Z,1.95
2023-04-20T21:00:10.444Z,2.55
2023-04-20T21:02:38.260Z,2.58
2023-04-20T21:05:06.007Z,2.25
2023-04-20T21:07:33.071Z,3.15
2023-04-20T21:10:00.230Z,2.45
2023-04-20T21:12:27.141Z,2.53
2023-04-20T21:14:54.221Z,2.70
2023-04-20T21:17:21.174Z,2.88
2023-04-20T21:19:48.100Z,3.17
2023-04-20T21:22:14.994Z,2.50
2023-04-20T21:24:42.320Z,2.55
2023-04-20T21:27:09.264Z,3.75
2023-04-20T21:29:36.245Z,3.50
2023-04-20T21:32:05.887Z,2.42
2023-04-20T21:34:33.077Z,3.33
2023-04-20T21:37:04.150Z,3.30
2023-04-20T21:39:34.383Z,2.90
2023-04-20T21:42:01.632Z,3.30
2023-04-20T21:44:28.593Z,3.40
2023-04-20T21:46:55.540Z,2.80
2023-04-20T21:49:22.423Z,3.55
2023-04-20T21:51:49.320Z,2.90
2023-04-20T21:54:16.384Z,3.45
2023-04-20T21:56:43.416Z,3.15
2023-04-20T21:59:10.866Z,3.42
2023-04-20T22:01:37.991Z,2.80
2023-04-20T22:04:05.133Z,3.55
2023-04-20T22:06:32.734Z,3.55
2023-04-20T22:08:59.711Z,3.42
2023-04-20T22:11:26.538Z,3.80
2023-04-20T22:13:53.591Z,3.88
2023-04-20T22:16:21.987Z,3.63
2023-04-20T22:18:49.246Z,3.78
2023-04-20T22:21:16.231Z,3.45
2023-04-20T22:23:43.301Z,3.38
2023-04-20T22:26:10.206Z,3.25
2023-04-20T22:28:37.079Z,3.28
2023-04-20T22:31:04.127Z,3.92
2023-04-20T22:33:31.137Z,3.10
2023-04-20T22:35:57.987Z,3.33
2023-04-20T22:38:24.869Z,3.08
2023-04-20T22:40:51.868Z,3.30
2023-04-20T22:43:20.195Z,3.47
2023-04-20T22:45:47.417Z,3.33
2023-04-20T22:48:14.359Z,3.03
2023-04-20T22:50:43.714Z,3.00
2023-04-20T22:53:10.698Z,2.80
2023-04-20T22:55:37.636Z,3.70
2023-04-20T22:58:04.585Z,4.22
2023-04-20T23:00:31.625Z,5.03
2023-04-20T23:02:58.791Z,3.75
2023-04-20T23:05:26.570Z,4.60
2023-04-20T23:07:53.999Z,4.20
2023-04-20T23:10:21.057Z,4.40
2023-04-20T23:12:48.820Z,3.65
2023-04-20T23:15:15.858Z,3.42
2023-04-20T23:17:42.820Z,3.70
2023-04-20T23:20:13.947Z,4.47
2023-04-20T23:22:41.092Z,3.40
2023-04-20T23:25:09.876Z,3.90
2023-04-20T23:27:36.971Z,3.58
2023-04-20T23:30:04.114Z,4.00
2023-04-20T23:32:31.450Z,3.92
2023-04-20T23:34:58.428Z,3.78
2023-04-20T23:37:25.377Z,4.00
2023-04-20T23:39:52.275Z,5.63
2023-04-20T23:42:19.143Z,4.50
2023-04-20T23:44:46.201Z,4.13
2023-04-20T23:47:13.968Z,3.67
2023-04-20T23:49:41.162Z,4.07
2023-04-20T23:52:08.079Z,3.50
2023-04-20T23:54:35.046Z,4.07
2023-04-20T23:57:02.820Z,3.17
2023-04-20T23:59:29.668Z,4.80
